Time;durP1;ratioP1;P1;durP2;ratioP2;P2;SDS_P1;SDS_P2;PMS_P1;PMS_P2;Temp;Humidity;BMP_temperature;BMP_pressure;BME280_temperature;BME280_humidity;BME280_pressure;Samples;Min_cycle;Max_cycle;Signal;HPM_P1;HPM_P2
2021/05/25 00:00:30;;;;;;;1.20;0.63;;;10.10;75.90;;;;;;5053403;28;20473;-35
2021/05/25 00:02:56;;;;;;;1.83;0.68;;;10.00;77.00;;;;;;5055909;28;20028;-34
2021/05/25 00:05:28;;;;;;;1.23;1.10;;;10.00;76.90;;;;;;5056323;28;20025;-36
2021/05/25 00:07:55;;;;;;;2.75;0.60;;;10.10;77.00;;;;;;5055645;28;20017;-35
2021/05/25 00:10:22;;;;;;;1.95;1.33;;;10.10;76.80;;;;;;5055510;28;20071;-36
2021/05/25 00:12:47;;;;;;;0.70;0.70;;;10.00;76.50;;;;;;5056756;28;20037;-35
2021/05/25 00:15:17;;;;;;;4.95;1.38;;;10.10;76.40;;;;;;5056902;28;20373;-35
2021/05/25 00:17:43;;;;;;;3.42;0.60;;;10.10;76.40;;;;;;5056890;28;20477;-35
2021/05/25 00:20:11;;;;;;;0.75;0.63;;;10.00;76.50;;;;;;5056771;28;20040;-35
2021/05/25 00:22:38;;;;;;;3.03;1.00;;;10.10;75.80;;;;;;5055051;28;20025;-36
2021/05/25 00:25:05;;;;;;;1.02;0.73;;;10.20;75.90;;;;;;5056761;28;20104;-35
2021/05/25 00:27:31;;;;;;;1.08;0.75;;;10.20;75.90;;;;;;5056615;28;20047;-36
2021/05/25 00:29:57;;;;;;;1.85;0.52;;;10.10;75.50;;;;;;5056846;28;20544;-35
2021/05/25 00:32:22;;;;;;;1.00;0.63;;;10.00;76.30;;;;;;5056354;28;20051;-36
2021/05/25 00:34:48;;;;;;;0.52;0.52;;;10.00;76.40;;;;;;5056208;28;20496;-35
2021/05/25 00:37:14;;;;;;;0.60;0.60;;;10.00;77.30;;;;;;5055093;28;20082;-36
2021/05/25 00:39:39;;;;;;;1.95;1.02;;;9.90;77.60;;;;;;5056346;28;20025;-34
2021/05/25 00:42:05;;;;;;;1.58;1.00;;;10.00;77.40;;;;;;5056061;28;20024;-36
2021/05/25 00:44:31;;;;;;;1.50;0.60;;;10.00;77.40;;;;;;5056296;28;20025;-35
2021/05/25 00:46:57;;;;;;;0.88;0.77;;;9.90;77.90;;;;;;5056316;28;20021;-35
2021/05/25 00:49:22;;;;;;;2.80;0.93;;;10.00;77.40;;;;;;5056379;28;20066;-35
2021/05/25 00:51:49;;;;;;;1.00;0.80;;;10.00;78.00;;;;;;5054808;28;20049;-36
2021/05/25 00:54:15;;;;;;;0.65;0.45;;;10.00;77.40;;;;;;5055815;28;20126;-35
2021/05/25 00:56:41;;;;;;;1.90;0.73;;;10.00;76.70;;;;;;5054445;28;20025;-35
2021/05/25 00:59:07;;;;;;;1.83;0.70;;;10.10;76.30;;;;;;5055957;28;20118;-35
2021/05/25 01:01:33;;;;;;;2.15;0.70;;;10.00;76.80;;;;;;5055897;28;20362;-35
2021/05/25 01:03:58;;;;;;;4.03;0.85;;;10.10;76.40;;;;;;5055443;28;20029;-35
2021/05/25 01:06:25;;;;;;;1.30;0.80;;;10.00;76.70;;;;;;5055492;28;20040;-35
2021/05/25 01:08:50;;;;;;;2.55;1.15;;;10.10;76.00;;;;;;5054147;28;20035;-35
2021/05/25 01:11:18;;;;;;;4.15;0.75;;;10.10;76.70;;;;;;5054825;28;20136;-35
2021/05/25 01:13:47;;;;;;;0.77;0.60;;;10.00;76.40;;;;;;5055390;28;20535;-35
2021/05/25 01:16:14;;;;;;;0.50;0.50;;;10.00;76.90;;;;;;5055224;28;20120;-35
2021/05/25 01:18:40;;;;;;;3.30;0.60;;;9.90;77.60;;;;;;5055361;28;20036;-35
2021/05/25 01:21:09;;;;;;;1.80;0.75;;;9.90;77.40;;;;;;5055217;28;20489;-35
2021/05/25 01:23:36;;;;;;;0.85;0.65;;;9.90;79.00;;;;;;5054937;28;20079;-35
2021/05/25 01:26:02;;;;;;;1.38;0.55;;;9.70;80.20;;;;;;5055414;28;20380;-35
2021/05/25 01:28:29;;;;;;;1.70;0.80;;;9.60;80.00;;;;;;5055271;28;20044;-35
2021/05/25 01:30:56;;;;;;;1.00;0.88;;;9.60;79.60;;;;;;5055344;28;20473;-35
2021/05/25 01:33:27;;;;;;;2.10;0.73;;;9.60;80.50;;;;;;5055346;28;20052;-35
2021/05/25 01:35:53;;;;;;;9.75;2.08;;;9.50;80.10;;;;;;5055293;28;20031;-35
2021/05/25 01:38:19;;;;;;;3.83;0.68;;;9.60;78.90;;;;;;5054933;28;20075;-35
2021/05/25 01:40:46;;;;;;;1.98;0.88;;;9.50;80.30;;;;;;5054956;28;20029;-35
2021/05/25 01:43:13;;;;;;;1.08;0.82;;;9.50;80.20;;;;;;5055045;28;20072;-35
2021/05/25 01:45:40;;;;;;;1.90;0.57;;;9.40;79.90;;;;;;5055067;28;20422;-35
2021/05/25 01:48:07;;;;;;;0.52;0.50;;;9.40;80.10;;;;;;5055019;28;20025;-35
2021/05/25 01:50:35;;;;;;;1.17;0.63;;;9.40;80.20;;;;;;5054725;28;20017;-35
2021/05/25 01:53:24;;;;;;;0.70;0.70;;;9.50;79.70;;;;;;5053316;28;20045;-35
2021/05/25 01:55:52;;;;;;;3.03;0.52;;;9.50;79.90;;;;;;5054284;28;20036;-35
2021/05/25 01:58:20;;;;;;;0.70;0.52;;;9.40;79.30;;;;;;5054603;28;20529;-35
2021/05/25 02:00:51;;;;;;;3.10;1.02;;;9.50;79.40;;;;;;5054787;28;20507;-36
2021/05/25 02:03:17;;;;;;;0.47;0.47;;;9.50;79.10;;;;;;5053192;28;20025;-35
2021/05/25 02:05:45;;;;;;;1.27;0.80;;;9.50;78.80;;;;;;5054566;28;20021;-35
2021/05/25 02:08:11;;;;;;;2.28;0.90;;;9.60;78.60;;;;;;5055110;28;20103;-35
2021/05/25 02:10:44;;;;;;;1.70;0.60;;;9.50;78.40;;;;;;5054246;28;20056;-35
2021/05/25 02:13:15;;;;;;;0.63;0.45;;;9.50;78.80;;;;;;5054256;28;20036;-35
2021/05/25 02:15:43;;;;;;;3.58;1.70;;;9.50;79.10;;;;;;5054298;28;20029;-35
2021/05/25 02:18:11;;;;;;;1.70;1.00;;;9.50;78.70;;;;;;5054635;28;20060;-35
2021/05/25 02:20:38;;;;;;;0.95;0.63;;;9.50;79.10;;;;;;5054120;28;20051;-35
2021/05/25 02:23:04;;;;;;;2.58;0.98;;;9.50;79.10;;;;;;5053855;28;20029;-35
2021/05/25 02:25:30;;;;;;;3.90;1.15;;;9.40;78.90;;;;;;5053997;28;20036;-35
2021/05/25 02:27:56;;;;;;;3.20;0.80;;;9.40;78.90;;;;;;5054268;28;20032;-35
2021/05/25 02:30:22;;;;;;;0.90;0.90;;;9.40;78.60;;;;;;5054332;28;20355;-35
2021/05/25 02:32:49;;;;;;;6.30;1.00;;;9.40;78.90;;;;;;5053965;28;20037;-35
2021/05/25 02:35:15;;;;;;;3.50;2.60;;;9.40;78.10;;;;;;5053914;28;20055;-35
2021/05/25 02:37:40;;;;;;;2.72;0.80;;;9.40;78.20;;;;;;5053872;28;20033;-35
2021/05/25 02:40:08;;;;;;;2.72;0.70;;;9.50;78.30;;;;;;5054447;28;20535;-36
2021/05/25 02:42:34;;;;;;;1.45;0.70;;;9.40;78.80;;;;;;5052504;28;20033;-35
2021/05/25 02:44:59;;;;;;;2.10;0.52;;;9.40;78.20;;;;;;5054099;28;20021;-35
2021/05/25 02:47:25;;;;;;;0.50;0.40;;;9.40;78.20;;;;;;5052501;28;20028;-35
2021/05/25 02:49:51;;;;;;;1.40;0.52;;;9.40;78.20;;;;;;5053916;28;20021;-35
2021/05/25 02:52:16;;;;;;;4.72;0.80;;;9.40;77.90;;;;;;5053504;28;20055;-35
2021/05/25 02:54:42;;;;;;;3.53;1.20;;;9.40;78.00;;;;;;5053588;28;20017;-37
2021/05/25 02:57:08;;;;;;;2.60;0.88;;;9.40;78.00;;;;;;5053558;28;20032;-35
2021/05/25 02:59:34;;;;;;;4.95;0.77;;;9.30;78.40;;;;;;5053697;28;20021;-34
2021/05/25 03:02:00;;;;;;;2.03;1.33;;;9.30;78.40;;;;;;5053583;28;20040;-34
2021/05/25 03:04:26;;;;;;;5.05;1.00;;;9.30;77.80;;;;;;5053432;28;20033;-34
2021/05/25 03:06:52;;;;;;;3.55;0.70;;;9.20;78.40;;;;;;5053576;28;20032;-35
2021/05/25 03:09:18;;;;;;;1.85;0.55;;;9.20;78.30;;;;;;5053447;28;20021;-35
2021/05/25 03:11:45;;;;;;;0.75;0.60;;;9.30;78.60;;;;;;5053917;28;20516;-34
2021/05/25 03:14:11;;;;;;;1.92;0.70;;;9.10;78.20;;;;;;5053407;28;20036;-34
2021/05/25 03:16:37;;;;;;;4.65;0.73;;;9.10;78.30;;;;;;5053581;28;20388;-34
2021/05/25 03:19:04;;;;;;;2.78;1.13;;;9.10;78.40;;;;;;5053303;28;20108;-34
2021/05/25 03:21:29;;;;;;;1.67;0.80;;;9.10;78.60;;;;;;5053410;28;20029;-34
2021/05/25 03:23:55;;;;;;;1.08;0.38;;;9.10;77.90;;;;;;5053168;28;20029;-34
2021/05/25 03:26:22;;;;;;;0.65;0.40;;;9.10;77.70;;;;;;5053278;28;20143;-34
2021/05/25 03:28:48;;;;;;;1.67;0.75;;;9.10;78.20;;;;;;5053447;28;20028;-35
2021/05/25 03:31:14;;;;;;;1.58;0.57;;;9.10;77.70;;;;;;5053218;28;20097;-34
2021/05/25 03:33:40;;;;;;;1.05;0.47;;;9.10;78.00;;;;;;5053192;28;20029;-34
2021/05/25 03:36:06;;;;;;;1.88;0.45;;;9.10;77.80;;;;;;5056094;28;20040;-34
2021/05/25 03:38:32;;;;;;;1.00;0.65;;;9.10;78.00;;;;;;5057553;28;20025;-34
2021/05/25 03:40:57;;;;;;;2.22;0.65;;;9.20;77.80;;;;;;5057301;28;20439;-35
2021/05/25 03:43:23;;;;;;;2.10;0.70;;;9.10;77.80;;;;;;5057504;28;20115;-34
2021/05/25 03:45:49;;;;;;;1.00;0.68;;;9.10;77.50;;;;;;5057426;28;20028;-35
2021/05/25 03:48:16;;;;;;;0.80;0.70;;;9.20;78.00;;;;;;5057416;28;20465;-36
2021/05/25 03:50:42;;;;;;;1.88;0.90;;;9.20;77.70;;;;;;5057100;28;20029;-35
2021/05/25 03:53:08;;;;;;;0.85;0.70;;;9.10;77.70;;;;;;5056843;28;20045;-35
2021/05/25 03:55:55;;;;;;;2.72;0.73;;;9.30;77.60;;;;;;5057037;28;20388;-35
2021/05/25 04:01:05;;;;;;;1.15;0.50;;;9.20;77.40;;;;;;5056129;28;20116;-36
2021/05/25 04:03:33;;;;;;;1.73;0.75;;;9.30;77.50;;;;;;5055618;28;20119;-36
2021/05/25 04:05:58;;;;;;;0.40;0.40;;;9.30;77.10;;;;;;5057180;28;20124;-36
2021/05/25 04:08:24;;;;;;;2.58;0.80;;;9.30;76.70;;;;;;5056881;28;20048;-34
2021/05/25 04:10:50;;;;;;;1.75;0.45;;;9.30;76.50;;;;;;5056647;28;20021;-35
2021/05/25 04:13:16;;;;;;;1.20;0.70;;;9.30;76.80;;;;;;5055533;28;20456;-35
2021/05/25 04:15:50;;;;;;;1.85;0.75;;;9.30;76.60;;;;;;5056607;28;20469;-35
2021/05/25 04:18:16;;;;;;;1.15;0.60;;;9.40;76.50;;;;;;5057461;28;20461;-35
2021/05/25 04:20:42;;;;;;;2.42;0.80;;;9.30;76.90;;;;;;5056815;28;20074;-35
2021/05/25 04:23:08;;;;;;;5.07;0.77;;;9.30;77.20;;;;;;5056401;28;20028;-35
2021/05/25 04:25:34;;;;;;;2.20;0.90;;;9.40;76.80;;;;;;5056410;28;20428;-35
2021/05/25 04:28:00;;;;;;;2.33;0.80;;;9.50;76.40;;;;;;5056376;28;20416;-35
2021/05/25 04:30:26;;;;;;;2.50;0.85;;;9.40;76.30;;;;;;5056185;28;20021;-35
2021/05/25 04:32:51;;;;;;;7.00;1.00;;;9.50;76.40;;;;;;5056612;28;20039;-35
2021/05/25 04:35:18;;;;;;;2.38;0.70;;;9.40;76.30;;;;;;5056507;28;20029;-36
2021/05/25 04:37:44;;;;;;;1.10;0.70;;;9.40;76.20;;;;;;5056369;28;20029;-35
2021/05/25 04:40:10;;;;;;;0.30;0.30;;;9.30;76.20;;;;;;5056888;28;20357;-35
2021/05/25 04:42:36;;;;;;;0.70;0.45;;;9.40;76.50;;;;;;5055617;28;20070;-35
2021/05/25 04:45:03;;;;;;;1.35;0.70;;;9.50;76.20;;;;;;5056402;28;20617;-35
2021/05/25 04:47:29;;;;;;;2.33;0.98;;;9.50;76.40;;;;;;5055883;28;20018;-35
2021/05/25 04:49:55;;;;;;;4.30;0.80;;;9.50;76.30;;;;;;5055997;28;20025;-35
2021/05/25 04:52:20;;;;;;;1.52;0.45;;;9.40;76.20;;;;;;5054555;28;20052;-35
2021/05/25 04:54:46;;;;;;;5.10;1.25;;;9.30;76.70;;;;;;5055811;28;20096;-35
2021/05/25 04:57:12;;;;;;;2.08;0.70;;;9.40;76.60;;;;;;5054508;28;20032;-34
2021/05/25 04:59:39;;;;;;;2.47;0.63;;;9.40;76.70;;;;;;5055065;28;20053;-35
2021/05/25 05:02:04;;;;;;;4.25;1.40;;;9.40;76.90;;;;;;5055717;28;20024;-34
2021/05/25 05:04:30;;;;;;;2.92;0.93;;;9.40;76.70;;;;;;5055616;28;20116;-35
2021/05/25 05:06:56;;;;;;;0.70;0.70;;;9.50;76.70;;;;;;5055930;28;20035;-35
2021/05/25 05:09:21;;;;;;;1.48;0.60;;;9.50;76.30;;;;;;5055668;28;20029;-35
2021/05/25 05:11:47;;;;;;;1.48;0.60;;;9.40;77.00;;;;;;5055894;28;20017;-35
2021/05/25 05:14:13;;;;;;;2.30;0.65;;;9.40;77.20;;;;;;5055763;28;20055;-35
2021/05/25 05:16:38;;;;;;;1.17;0.60;;;9.50;77.10;;;;;;5055510;28;20060;-35
2021/05/25 05:19:04;;;;;;;0.90;0.60;;;9.40;77.80;;;;;;5056025;28;20097;-35
2021/05/25 05:21:30;;;;;;;3.17;1.23;;;9.30;77.90;;;;;;5055800;28;20508;-35
2021/05/25 05:23:55;;;;;;;2.25;0.70;;;9.50;77.50;;;;;;5055122;28;20052;-35
2021/05/25 05:26:21;;;;;;;2.22;1.10;;;9.50;77.80;;;;;;5054400;28;20066;-35
2021/05/25 05:28:47;;;;;;;3.00;1.00;;;9.40;78.00;;;;;;5055753;28;20021;-35
2021/05/25 05:31:13;;;;;;;1.58;0.77;;;9.70;77.50;;;;;;5054147;28;20495;-36
2021/05/25 05:33:39;;;;;;;3.13;1.02;;;9.50;77.70;;;;;;5055379;28;20021;-35
2021/05/25 05:36:05;;;;;;;1.25;0.88;;;9.40;78.50;;;;;;5055259;28;20036;-35
2021/05/25 05:38:30;;;;;;;1.95;1.05;;;9.60;78.20;;;;;;5055003;28;20036;-35
2021/05/25 05:41:03;;;;;;;5.25;1.40;;;9.40;78.30;;;;;;5055451;28;20385;-35
2021/05/25 05:43:30;;;;;;;1.67;0.88;;;9.50;78.60;;;;;;5055147;28;20424;-35
2021/05/25 05:45:57;;;;;;;1.02;0.80;;;9.70;78.00;;;;;;5053630;28;20056;-35
2021/05/25 05:48:22;;;;;;;1.67;0.88;;;9.50;78.40;;;;;;5054733;28;20108;-35
2021/05/25 05:50:48;;;;;;;8.68;1.60;;;9.60;78.60;;;;;;5055129;28;20100;-35
2021/05/25 05:53:14;;;;;;;1.98;0.85;;;9.60;78.80;;;;;;5054726;28;20045;-35
2021/05/25 05:55:39;;;;;;;8.45;3.90;;;9.70;78.40;;;;;;5055020;28;20041;-35
2021/05/25 05:58:06;;;;;;;1.30;0.98;;;9.80;77.90;;;;;;5053905;28;20029;-35
2021/05/25 06:00:32;;;;;;;5.03;1.70;;;9.90;77.60;;;;;;5054535;28;20025;-35
2021/05/25 06:02:57;;;;;;;3.90;0.73;;;9.90;77.90;;;;;;5053191;28;20041;-35
2021/05/25 06:05:23;;;;;;;2.20;1.20;;;9.90;78.00;;;;;;5054343;28;20021;-35
2021/05/25 06:07:49;;;;;;;4.35;1.15;;;9.80;79.30;;;;;;5054540;28;20029;-35
2021/05/25 06:10:15;;;;;;;2.47;1.40;;;9.90;80.10;;;;;;5054555;28;20469;-35
2021/05/25 06:12:41;;;;;;;1.88;0.80;;;9.70;81.40;;;;;;5054524;28;20035;-35
2021/05/25 06:15:07;;;;;;;1.75;0.80;;;9.60;80.60;;;;;;5054138;28;20466;-36
2021/05/25 06:17:32;;;;;;;1.35;0.90;;;9.60;81.60;;;;;;5054594;28;20539;-35
2021/05/25 06:19:58;;;;;;;0.70;0.70;;;9.70;81.10;;;;;;5054315;28;20025;-36
2021/05/25 06:22:24;;;;;;;1.92;1.60;;;9.40;81.90;;;;;;5053934;28;20446;-36
2021/05/25 06:24:50;;;;;;;4.38;1.67;;;9.40;81.70;;;;;;5054887;28;20025;-36
2021/05/25 06:27:16;;;;;;;2.90;1.17;;;9.40;82.40;;;;;;5054035;28;20074;-35
2021/05/25 06:29:43;;;;;;;0.82;0.73;;;9.50;82.30;;;;;;5053760;28;20060;-35
2021/05/25 06:32:09;;;;;;;2.38;0.98;;;9.50;81.80;;;;;;5053676;28;20473;-35
2021/05/25 06:34:35;;;;;;;2.30;1.30;;;9.50;82.10;;;;;;5053553;28;20151;-35
2021/05/25 06:37:00;;;;;;;1.25;1.00;;;9.80;80.90;;;;;;5052323;28;20025;-35
2021/05/25 06:39:26;;;;;;;2.83;0.90;;;9.90;80.70;;;;;;5053637;28;20418;-35
2021/05/25 06:41:51;;;;;;;1.38;0.70;;;10.20;79.80;;;;;;5053507;28;20550;-35
2021/05/25 06:44:17;;;;;;;4.70;1.70;;;9.90;80.40;;;;;;5053368;28;20039;-35
2021/05/25 06:46:43;;;;;;;4.32;1.00;;;10.00;79.80;;;;;;5053822;28;20025;-35
2021/05/25 06:49:10;;;;;;;4.95;1.42;;;9.80;81.10;;;;;;5053551;28;20044;-36
2021/05/25 06:51:37;;;;;;;6.28;1.55;;;9.70;81.40;;;;;;5053125;28;20059;-36
2021/05/25 06:54:05;;;;;;;4.13;1.73;;;9.50;82.60;;;;;;5053655;28;20116;-36
2021/05/25 06:56:31;;;;;;;2.97;0.98;;;9.60;82.70;;;;;;5051607;28;20024;-36
2021/05/25 06:58:57;;;;;;;5.97;2.55;;;9.80;82.00;;;;;;5053109;28;20033;-36
2021/05/25 07:01:23;;;;;;;1.60;1.17;;;9.90;82.00;;;;;;5053254;28;20366;-36
2021/05/25 07:03:51;;;;;;;1.77;1.23;;;10.10;82.40;;;;;;5053485;28;20357;-36
2021/05/25 07:06:17;;;;;;;2.25;1.35;;;10.20;80.90;;;;;;5053210;28;20029;-35
2021/05/25 07:08:42;;;;;;;2.47;1.75;;;10.30;81.20;;;;;;5053035;28;20029;-35
2021/05/25 07:11:08;;;;;;;1.98;1.45;;;10.60;79.20;;;;;;5052279;28;20074;-35
2021/05/25 07:13:34;;;;;;;3.10;1.52;;;10.40;79.80;;;;;;5052616;28;20112;-34
2021/05/25 07:16:00;;;;;;;3.83;1.20;;;10.70;78.90;;;;;;5053072;28;20387;-35
2021/05/25 07:18:25;;;;;;;3.53;1.17;;;11.20;76.70;;;;;;5053127;28;20073;-35
2021/05/25 07:20:51;;;;;;;1.42;0.95;;;10.80;77.00;;;;;;5053304;28;20025;-35
2021/05/25 07:23:17;;;;;;;2.38;1.23;;;11.00;76.10;;;;;;5053018;28;20029;-35
2021/05/25 07:25:43;;;;;;;3.15;2.08;;;11.30;75.40;;;;;;5053762;28;20025;-35
2021/05/25 07:28:09;;;;;;;3.08;1.17;;;11.10;74.20;;;;;;5053195;28;20021;-35
2021/05/25 07:30:36;;;;;;;1.30;0.82;;;10.80;75.00;;;;;;5053299;28;20075;-35
2021/05/25 07:33:01;;;;;;;3.42;0.95;;;10.40;77.00;;;;;;5052452;28;20033;-35
2021/05/25 07:35:27;;;;;;;1.25;0.80;;;10.20;78.10;;;;;;5053554;28;20120;-36
2021/05/25 07:37:53;;;;;;;1.98;0.93;;;9.80;78.60;;;;;;5053318;28;20029;-36
2021/05/25 07:40:19;;;;;;;1.10;0.75;;;9.50;80.10;;;;;;5053444;28;20025;-35
2021/05/25 07:42:46;;;;;;;3.25;0.70;;;9.80;79.20;;;;;;5053096;28;20457;-35
2021/05/25 07:45:13;;;;;;;4.47;0.80;;;9.80;79.00;;;;;;5051249;28;20025;-35
2021/05/25 07:47:39;;;;;;;2.45;0.70;;;9.90;78.30;;;;;;5052013;28;20024;-36
2021/05/25 07:50:15;;;;;;;1.25;0.93;;;9.90;78.90;;;;;;5053262;28;20461;-35
2021/05/25 07:52:40;;;;;;;1.55;0.75;;;10.00;78.80;;;;;;5051179;28;20132;-35
2021/05/25 07:55:07;;;;;;;8.13;1.30;;;10.30;77.70;;;;;;5052961;28;20048;-35
2021/05/25 07:57:33;;;;;;;0.68;0.68;;;10.80;76.30;;;;;;5053018;28;20032;-38
2021/05/25 07:59:58;;;;;;;2.55;1.02;;;10.90;74.80;;;;;;5052241;28;20025;-37
2021/05/25 08:02:24;;;;;;;1.25;1.10;;;10.60;75.90;;;;;;5052660;28;20052;-35
2021/05/25 08:04:50;;;;;;;3.42;1.60;;;10.60;75.60;;;;;;5050704;28;20453;-36
2021/05/25 08:07:15;;;;;;;2.70;1.00;;;10.70;74.70;;;;;;5052174;28;20033;-36
2021/05/25 08:09:41;;;;;;;1.42;1.27;;;10.40;75.70;;;;;;5052553;28;20029;-35
2021/05/25 08:12:07;;;;;;;3.83;2.28;;;10.00;77.10;;;;;;5052809;28;20018;-36
2021/05/25 08:14:32;;;;;;;3.90;1.42;;;10.20;77.30;;;;;;5052047;28;20032;-37
2021/05/25 08:17:05;;;;;;;2.58;1.33;;;10.00;77.90;;;;;;5053303;28;20029;-38
2021/05/25 08:19:33;;;;;;;3.03;1.40;;;10.10;77.70;;;;;;5053027;28;20362;-35
2021/05/25 08:21:59;;;;;;;3.78;1.60;;;10.20;77.50;;;;;;5054743;28;20414;-35
2021/05/25 08:24:25;;;;;;;3.17;1.83;;;10.10;78.50;;;;;;5055976;28;20090;-42
2021/05/25 08:26:50;;;;;;;3.53;1.85;;;10.10;78.60;;;;;;5056023;28;20021;-36
2021/05/25 08:29:16;;;;;;;1.90;1.73;;;10.10;79.10;;;;;;5056127;28;20013;-37
2021/05/25 08:31:42;;;;;;;5.35;2.13;;;10.10;79.00;;;;;;5055853;28;20029;-36
2021/05/25 08:34:08;;;;;;;3.42;2.15;;;10.40;78.10;;;;;;5055695;28;20052;-35
2021/05/25 08:36:35;;;;;;;2.90;2.25;;;10.80;77.00;;;;;;5054378;28;20048;-34
2021/05/25 08:39:01;;;;;;;5.40;2.42;;;10.20;78.90;;;;;;5056014;28;20021;-35
2021/05/25 08:41:27;;;;;;;3.45;2.72;;;10.10;79.40;;;;;;5056098;28;20029;-34
2021/05/25 08:43:52;;;;;;;6.60;3.10;;;10.20;79.20;;;;;;5055993;28;20029;-35
2021/05/25 08:46:22;;;;;;;4.65;3.00;;;10.00;79.10;;;;;;5055955;28;20029;-36
2021/05/25 08:48:48;;;;;;;6.38;2.90;;;10.20;78.90;;;;;;5057184;28;20188;-36
2021/05/25 08:51:14;;;;;;;3.60;3.15;;;10.40;77.80;;;;;;5055986;28;20397;-35
2021/05/25 08:53:40;;;;;;;3.42;3.13;;;10.70;76.90;;;;;;5056256;28;20032;-35
2021/05/25 08:56:06;;;;;;;3.78;3.40;;;10.80;75.50;;;;;;5055415;28;20032;-35
2021/05/25 08:58:32;;;;;;;3.22;2.42;;;10.80;75.60;;;;;;5055137;28;20067;-35
2021/05/25 09:00:58;;;;;;;4.82;2.42;;;10.90;75.60;;;;;;5055618;28;20060;-35
2021/05/25 09:03:24;;;;;;;3.42;2.22;;;11.20;74.50;;;;;;5055540;28;20465;-35
2021/05/25 09:06:07;;;;;;;5.10;2.05;;;11.30;73.70;;;;;;5055489;28;20036;-35
2021/05/25 09:08:37;;;;;;;3.22;2.35;;;11.30;73.50;;;;;;5055337;28;20025;-35
2021/05/25 09:11:08;;;;;;;3.35;2.95;;;11.30;73.40;;;;;;5055058;28;20025;-35
2021/05/25 09:13:34;;;;;;;4.20;2.92;;;11.00;74.40;;;;;;5054789;28;20476;-35
2021/05/25 09:16:02;;;;;;;6.00;2.72;;;10.90;74.90;;;;;;5053533;28;20036;-34
2021/05/25 09:18:30;;;;;;;4.43;2.33;;;10.80;75.80;;;;;;5055156;28;20040;-36
2021/05/25 09:21:04;;;;;;;3.35;2.90;;;11.30;74.70;;;;;;5055443;28;20025;-35
2021/05/25 09:23:33;;;;;;;2.97;2.05;;;11.60;74.20;;;;;;5053235;28;20025;-35
2021/05/25 09:26:11;;;;;;;3.67;2.92;;;12.00;72.40;;;;;;5054764;28;20128;-35
2021/05/25 09:28:52;;;;;;;3.05;2.60;;;12.50;69.90;;;;;;5052852;28;20029;-36
2021/05/25 09:31:39;;;;;;;2.83;2.28;;;13.40;65.30;;;;;;5052990;28;20049;-35
2021/05/25 09:34:10;;;;;;;3.60;2.20;;;14.40;61.90;;;;;;5052948;28;20107;-36
2021/05/25 09:36:58;;;;;;;3.47;1.80;;;14.60;60.10;;;;;;5053342;28;20028;-35
2021/05/25 09:39:25;;;;;;;3.40;1.88;;;14.00;61.00;;;;;;5054773;28;20036;-35
2021/05/25 09:41:55;;;;;;;3.58;2.30;;;12.90;64.40;;;;;;5054859;28;20029;-36
2021/05/25 09:44:20;;;;;;;1.85;1.75;;;13.50;63.90;;;;;;5054747;28;20126;-36
2021/05/25 09:46:49;;;;;;;8.43;3.97;;;13.10;64.10;;;;;;5054989;28;20457;-36
2021/05/25 09:49:15;;;;;;;4.38;2.55;;;12.90;64.80;;;;;;5054668;28;20029;-36
2021/05/25 09:51:41;;;;;;;6.63;1.83;;;12.40;66.00;;;;;;5052640;28;20131;-36
2021/05/25 09:54:21;;;;;;;4.57;2.50;;;13.60;63.00;;;;;;5053992;28;20238;-36
2021/05/25 09:56:59;;;;;;;5.18;2.13;;;13.80;61.20;;;;;;5053131;28;20025;-36
2021/05/25 09:59:31;;;;;;;3.47;2.15;;;14.10;61.60;;;;;;5053941;28;20021;-36
2021/05/25 10:02:17;;;;;;;3.78;2.25;;;14.10;61.50;;;;;;5054372;28;20025;-35
2021/05/25 10:05:08;;;;;;;4.07;2.90;;;14.30;60.20;;;;;;5056012;28;20041;-38
2021/05/25 10:07:36;;;;;;;5.90;2.30;;;14.80;59.60;;;;;;5054288;28;20033;-35
2021/05/25 10:10:03;;;;;;;4.22;3.05;;;14.80;59.40;;;;;;5054793;28;20060;-36
2021/05/25 10:12:30;;;;;;;5.20;2.50;;;14.00;60.20;;;;;;5054379;28;20028;-36
2021/05/25 10:14:58;;;;;;;6.75;2.50;;;13.50;62.80;;;;;;5054512;28;20029;-36
2021/05/25 10:20:07;;;;;;;5.38;2.30;;;14.30;60.30;;;;;;5053869;28;20169;-35
2021/05/25 10:22:33;;;;;;;5.30;2.33;;;14.40;59.20;;;;;;5053326;28;20469;-35
2021/05/25 10:25:00;;;;;;;5.45;2.20;;;13.90;60.60;;;;;;5053909;28;20096;-35
2021/05/25 10:27:29;;;;;;;3.20;2.28;;;14.00;60.60;;;;;;5053534;28;20029;-36
2021/05/25 10:29:55;;;;;;;5.72;2.63;;;13.80;61.30;;;;;;5052270;28;20028;-35
2021/05/25 10:32:23;;;;;;;3.13;2.83;;;13.20;63.80;;;;;;5053687;28;20092;-35
2021/05/25 10:34:51;;;;;;;6.25;4.25;;;12.80;67.10;;;;;;5053944;28;20029;-35
2021/05/25 10:37:17;;;;;;;4.10;3.38;;;12.70;69.20;;;;;;5054353;28;20094;-36
2021/05/25 10:39:44;;;;;;;3.47;3.17;;;12.60;71.30;;;;;;5053854;28;20025;-35
2021/05/25 10:42:24;;;;;;;4.05;1.42;;;12.50;70.30;;;;;;5054068;28;20025;-35
2021/05/25 10:44:54;;;;;;;1.05;1.02;;;11.70;69.20;;;;;;5053892;28;20380;-35
2021/05/25 10:47:35;;;;;;;2.17;1.20;;;11.30;70.10;;;;;;5053678;28;20512;-37
2021/05/25 10:52:56;;;;;;;1.00;1.00;;;11.20;68.10;;;;;;5053528;28;20174;-36
2021/05/25 10:55:39;;;;;;;3.50;0.93;;;11.20;69.80;;;;;;5053709;28;20107;-36
2021/05/25 10:58:20;;;;;;;2.85;1.55;;;10.80;73.40;;;;;;5054239;28;20139;-37
2021/05/25 11:00:45;;;;;;;;;;;10.10;77.60;;;;;;5054734;28;20515;-36
2021/05/25 11:03:11;;;;;;;1.58;1.38;;;9.80;80.70;;;;;;5053634;28;19913;-36
2021/05/25 11:05:37;;;;;;;4.85;2.35;;;9.80;81.90;;;;;;5053778;28;20025;-35
2021/05/25 11:08:10;;;;;;;3.03;1.90;;;9.80;82.40;;;;;;5053770;28;20032;-36
2021/05/25 11:10:52;;;;;;;5.78;3.88;;;9.80;83.50;;;;;;5053920;28;20029;-37
2021/05/25 11:13:18;;;;;;;6.93;3.03;;;9.80;83.90;;;;;;5052075;28;20546;-35
2021/05/25 11:16:08;;;;;;;7.00;3.17;;;10.00;83.30;;;;;;5052665;28;20064;-35
2021/05/25 11:21:36;;;;;;;7.82;3.33;;;10.30;83.50;;;;;;5053424;28;20033;-35
2021/05/25 11:24:32;;;;;;;5.10;3.03;;;10.40;83.20;;;;;;5052856;28;20384;-37
2021/05/25 11:27:13;;;;;;;9.60;3.50;;;10.60;82.80;;;;;;5052686;28;20025;-35
2021/05/25 11:29:52;;;;;;;5.15;3.05;;;10.60;82.90;;;;;;5052982;28;20504;-35
2021/05/25 11:32:24;;;;;;;8.90;3.08;;;10.70;83.20;;;;;;5053344;28;20052;-35
2021/05/25 11:35:12;;;;;;;5.60;2.83;;;10.80;83.40;;;;;;5052590;28;20095;-37
2021/05/25 11:37:42;;;;;;;3.20;2.90;;;10.80;81.50;;;;;;5052818;28;20112;-37
2021/05/25 11:40:10;;;;;;;4.43;3.17;;;10.80;82.00;;;;;;5053046;28;20537;-36
2021/05/25 11:42:36;;;;;;;7.15;3.63;;;10.80;82.10;;;;;;5052757;28;20027;-38
2021/05/25 11:45:03;;;;;;;13.82;4.15;;;10.80;82.40;;;;;;5052061;28;20392;-37
2021/05/25 11:47:29;;;;;;;4.05;3.10;;;10.80;82.70;;;;;;5053588;28;20094;-35
2021/05/25 11:49:55;;;;;;;5.13;2.83;;;10.80;82.30;;;;;;5053270;28;20025;-36
2021/05/25 11:52:22;;;;;;;9.77;2.53;;;10.70;81.40;;;;;;5052529;28;20237;-36
2021/05/25 11:54:50;;;;;;;5.05;2.70;;;10.80;81.90;;;;;;5051707;28;20029;-35
2021/05/25 11:57:32;;;;;;;6.35;2.28;;;11.20;80.60;;;;;;5054195;28;20116;-36
2021/05/25 12:00:00;;;;;;;3.00;2.75;;;11.30;80.60;;;;;;5056140;28;20029;-36
2021/05/25 12:02:31;;;;;;;8.20;3.10;;;11.30;79.80;;;;;;5056647;28;20037;-35
2021/05/25 12:05:18;;;;;;;3.95;3.15;;;12.00;77.90;;;;;;5056827;28;20176;-36
2021/05/25 12:07:46;;;;;;;4.70;2.33;;;13.30;74.50;;;;;;5056852;28;20235;-35
2021/05/25 12:10:14;;;;;;;3.80;2.55;;;13.80;72.00;;;;;;5056051;28;20036;-36
2021/05/25 12:12:44;;;;;;;5.50;3.17;;;14.10;73.00;;;;;;5056030;28;20013;-35
2021/05/25 12:15:23;;;;;;;10.25;4.03;;;13.60;73.00;;;;;;5056645;28;20484;-35
2021/05/25 12:17:51;;;;;;;5.18;3.72;;;13.90;72.70;;;;;;5056216;28;20040;-35
2021/05/25 12:20:19;;;;;;;7.10;5.13;;;13.20;75.30;;;;;;5056220;28;20049;-37
2021/05/25 12:22:51;;;;;;;7.22;4.70;;;13.50;73.60;;;;;;5054978;28;20021;-41
2021/05/25 12:25:28;;;;;;;10.43;6.22;;;13.30;75.00;;;;;;5056044;28;20017;-38
2021/05/25 12:28:09;;;;;;;10.00;5.68;;;14.10;73.00;;;;;;5056092;28;20108;-38
2021/05/25 12:30:37;;;;;;;13.52;5.20;;;14.10;72.00;;;;;;5055952;28;20029;-36
2021/05/25 12:33:04;;;;;;;13.38;5.82;;;13.60;72.50;;;;;;5057531;28;20029;-36
2021/05/25 12:35:30;;;;;;;13.48;5.70;;;13.20;73.70;;;;;;5055809;28;20021;-38
2021/05/25 12:38:05;;;;;;;11.57;5.97;;;12.80;76.60;;;;;;5055941;28;20431;-36
2021/05/25 12:40:31;;;;;;;10.48;6.25;;;12.20;80.00;;;;;;5054490;28;20052;-36
2021/05/25 12:42:56;;;;;;;10.85;6.50;;;11.70;82.20;;;;;;5055943;28;20032;-35
2021/05/25 12:45:26;;;;;;;10.63;6.85;;;11.60;82.10;;;;;;5055897;28;20417;-37
2021/05/25 12:47:56;;;;;;;7.30;4.10;;;11.50;83.10;;;;;;5056164;28;20045;-36
2021/05/25 12:50:38;;;;;;;3.25;2.35;;;11.40;79.30;;;;;;5055940;28;20111;-35
2021/05/25 12:53:07;;;;;;;5.80;2.40;;;11.40;74.80;;;;;;5055507;28;20049;-35
2021/05/25 12:55:38;;;;;;;3.50;2.13;;;11.60;75.50;;;;;;5054304;28;20033;-35
2021/05/25 12:58:04;;;;;;;5.60;2.95;;;11.60;76.80;;;;;;5054556;28;20025;-36
2021/05/25 13:00:38;;;;;;;10.65;4.70;;;11.70;78.10;;;;;;5055748;28;20029;-36
2021/05/25 13:03:24;;;;;;;7.82;4.68;;;11.50;80.90;;;;;;5055747;28;20025;-35
2021/05/25 13:05:51;;;;;;;4.57;2.60;;;11.30;79.90;;;;;;5053874;28;20120;-36